createdAt,value
2022-08-24T00:01:56.848Z,1.10
2022-08-24T00:04:24.885Z,0.98
2022-08-24T00:06:53.024Z,1.10
2022-08-24T00:09:21.234Z,1.10
2022-08-24T00:11:49.110Z,1.30
2022-08-24T00:14:18.698Z,1.15
2022-08-24T00:16:47.911Z,1.05
2022-08-24T00:19:16.318Z,1.30
2022-08-24T00:21:45.241Z,1.10
2022-08-24T00:24:14.664Z,1.38
2022-08-24T00:26:42.618Z,1.30
2022-08-24T00:29:11.011Z,1.30
2022-08-24T00:31:40.695Z,1.40
2022-08-24T00:34:08.678Z,1.30
2022-08-24T00:36:37.003Z,1.05
2022-08-24T00:39:05.605Z,1.40
2022-08-24T00:41:33.887Z,1.30
2022-08-24T00:44:06.376Z,1.48
2022-08-24T00:46:43.681Z,1.50
2022-08-24T00:49:19.832Z,1.00
2022-08-24T00:51:55.810Z,1.33
2022-08-24T00:54:27.037Z,1.20
2022-08-24T00:57:00.138Z,1.50
2022-08-24T00:59:32.706Z,1.40
2022-08-24T01:02:09.005Z,1.35
2022-08-24T01:04:50.889Z,1.55
2022-08-24T01:07:22.806Z,1.35
2022-08-24T01:09:51.386Z,1.80
2022-08-24T01:12:19.382Z,1.50
2022-08-24T01:14:47.905Z,1.52
2022-08-24T01:17:39.197Z,1.70
2022-08-24T01:20:10.946Z,1.75
2022-08-24T01:22:54.762Z,1.63
2022-08-24T01:25:26.536Z,1.50
2022-08-24T01:27:57.778Z,1.65
2022-08-24T01:30:30.732Z,1.80
2022-08-24T01:33:07.925Z,1.70
2022-08-24T01:35:37.962Z,2.05
2022-08-24T01:38:10.431Z,1.60
2022-08-24T01:40:44.018Z,2.40
2022-08-24T01:43:13.048Z,1.67
2022-08-24T01:45:41.499Z,1.30
2022-08-24T01:48:09.473Z,1.70
2022-08-24T01:50:37.557Z,1.70
2022-08-24T01:53:06.830Z,1.48
2022-08-24T01:55:35.612Z,2.05
2022-08-24T01:58:06.602Z,1.67
2022-08-24T02:00:36.715Z,1.67
2022-08-24T02:03:05.005Z,1.60
2022-08-24T02:05:33.561Z,1.27
2022-08-24T02:08:01.604Z,1.67
2022-08-24T02:10:30.494Z,1.60
2022-08-24T02:12:59.505Z,2.13
2022-08-24T02:15:32.835Z,1.65
2022-08-24T02:18:02.117Z,1.80
2022-08-24T02:20:30.482Z,1.60
2022-08-24T02:22:59.043Z,1.60
2022-08-24T02:25:30.570Z,1.73
2022-08-24T02:27:59.612Z,2.10
2022-08-24T02:30:29.769Z,1.60
2022-08-24T02:32:59.253Z,1.67
2022-08-24T02:35:27.914Z,1.50
2022-08-24T02:37:55.906Z,1.70
2022-08-24T02:40:24.608Z,1.85
2022-08-24T02:42:52.750Z,2.15
2022-08-24T02:45:20.989Z,1.65
2022-08-24T02:47:52.441Z,1.45
2022-08-24T02:50:27.774Z,1.80
2022-08-24T02:52:56.056Z,1.42
2022-08-24T02:55:24.980Z,1.63
2022-08-24T02:57:53.064Z,1.40
2022-08-24T03:00:23.030Z,1.50
2022-08-24T03:02:51.628Z,1.60
2022-08-24T03:05:19.968Z,1.25
2022-08-24T03:07:49.701Z,1.05
2022-08-24T03:10:20.802Z,1.33
2022-08-24T03:12:50.407Z,1.40
2022-08-24T03:15:22.483Z,1.33
2022-08-24T03:17:51.364Z,1.60
2022-08-24T03:20:22.282Z,1.50
2022-08-24T03:22:52.001Z,1.42
2022-08-24T03:25:21.860Z,1.75
2022-08-24T03:27:49.849Z,1.50
2022-08-24T03:30:18.801Z,1.52
2022-08-24T03:32:47.580Z,1.83
2022-08-24T03:35:16.610Z,1.60
2022-08-24T03:37:44.778Z,1.60
2022-08-24T03:40:24.516Z,1.42
2022-08-24T03:42:53.690Z,1.55
2022-08-24T03:45:22.945Z,1.40
2022-08-24T03:47:51.906Z,1.45
2022-08-24T03:50:20.870Z,1.63
2022-08-24T03:52:49.715Z,1.60
2022-08-24T03:55:19.416Z,1.45
2022-08-24T03:57:47.394Z,1.42
2022-08-24T04:00:15.876Z,1.42
2022-08-24T04:02:44.571Z,1.63
2022-08-24T04:05:13.467Z,1.30
2022-08-24T04:07:41.380Z,1.60
2022-08-24T04:10:11.560Z,1.58
2022-08-24T04:12:41.040Z,1.50
2022-08-24T04:15:10.149Z,1.52
2022-08-24T04:17:38.054Z,2.20
2022-08-24T04:20:07.519Z,2.03
2022-08-24T04:22:35.550Z,1.67
2022-08-24T04:25:08.983Z,1.48
2022-08-24T04:27:37.883Z,1.60
2022-08-24T04:30:08.641Z,1.60
2022-08-24T04:32:36.692Z,1.63
2022-08-24T04:35:06.285Z,1.40
2022-08-24T04:37:34.324Z,1.63
2022-08-24T04:40:03.335Z,1.52
2022-08-24T04:42:33.421Z,1.63
2022-08-24T04:45:01.744Z,1.60
2022-08-24T04:47:31.015Z,1.40
2022-08-24T04:49:58.970Z,1.40
2022-08-24T04:52:27.410Z,1.40
2022-08-24T04:54:55.292Z,1.27
2022-08-24T04:57:23.292Z,1.30
2022-08-24T04:59:51.298Z,1.40
2022-08-24T05:02:20.987Z,1.33
2022-08-24T05:04:50.441Z,1.60
2022-08-24T05:07:20.021Z,1.10
2022-08-24T05:09:47.941Z,0.90
2022-08-24T05:12:21.274Z,1.13
2022-08-24T05:14:49.132Z,1.00
2022-08-24T05:17:17.030Z,0.82
2022-08-24T05:19:45.186Z,1.00
2022-08-24T05:22:14.512Z,0.90
2022-08-24T05:24:43.098Z,0.80
2022-08-24T05:27:11.296Z,0.90
2022-08-24T05:29:42.223Z,0.70
2022-08-24T05:32:10.104Z,0.70
2022-08-24T05:34:38.307Z,0.73
2022-08-24T05:37:06.251Z,0.70
2022-08-24T05:39:35.590Z,1.00
2022-08-24T05:42:03.874Z,1.02
2022-08-24T05:44:32.057Z,1.20
2022-08-24T05:47:01.353Z,0.82
2022-08-24T05:49:29.678Z,0.82
2022-08-24T05:51:57.803Z,0.80
2022-08-24T05:54:25.886Z,1.10
2022-08-24T05:56:57.482Z,0.70
2022-08-24T05:59:25.489Z,0.70
2022-08-24T06:01:53.614Z,0.73
2022-08-24T06:04:22.072Z,0.80
2022-08-24T06:06:52.341Z,0.70
2022-08-24T06:09:20.248Z,0.68
2022-08-24T06:11:48.945Z,0.65
2022-08-24T06:14:23.862Z,0.70
2022-08-24T06:16:54.662Z,0.88
2022-08-24T06:19:22.986Z,0.70
2022-08-24T06:21:53.629Z,0.60
2022-08-24T06:24:45.068Z,0.60
2022-08-24T06:27:21.725Z,0.65
2022-08-24T06:29:52.676Z,0.60
2022-08-24T06:32:20.910Z,0.80
2022-08-24T06:34:48.814Z,0.40
2022-08-24T06:37:17.739Z,0.70
2022-08-24T06:39:46.789Z,0.80
2022-08-24T06:42:14.740Z,0.50
2022-08-24T06:44:43.398Z,1.02
2022-08-24T06:47:12.774Z,0.70
2022-08-24T06:49:41.032Z,0.80
2022-08-24T06:52:10.272Z,0.70
2022-08-24T06:54:38.929Z,0.80
2022-08-24T06:57:07.629Z,0.50
2022-08-24T06:59:36.250Z,2.22
2022-08-24T07:02:04.179Z,1.10
2022-08-24T07:04:36.048Z,0.43
2022-08-24T07:07:04.122Z,0.85
2022-08-24T07:09:33.495Z,0.65
2022-08-24T07:12:01.602Z,0.57
2022-08-24T07:14:29.949Z,0.75
2022-08-24T07:16:57.977Z,0.63
2022-08-24T07:19:26.113Z,0.60
2022-08-24T07:21:58.987Z,0.45
2022-08-24T07:24:27.177Z,0.52
2022-08-24T07:26:55.236Z,0.63
2022-08-24T07:29:48.554Z,0.60
2022-08-24T07:32:12.447Z,0.70
2022-08-24T07:34:40.433Z,0.85
2022-08-24T07:37:09.695Z,0.77
2022-08-24T07:39:37.564Z,0.60
2022-08-24T07:42:13.383Z,0.57
2022-08-24T07:44:43.444Z,0.60
2022-08-24T07:47:36.662Z,0.60
2022-08-24T07:49:59.751Z,0.90
2022-08-24T07:52:29.365Z,0.60
2022-08-24T07:54:57.286Z,0.60
2022-08-24T07:57:25.468Z,0.43
2022-08-24T07:59:56.063Z,0.50
2022-08-24T08:02:24.053Z,0.57
2022-08-24T08:04:56.817Z,0.70
2022-08-24T08:07:24.904Z,0.60
2022-08-24T08:09:54.314Z,0.50
2022-08-24T08:12:22.305Z,0.70
2022-08-24T08:14:50.297Z,0.80
2022-08-24T08:17:18.261Z,0.55
2022-08-24T08:19:46.414Z,0.60
2022-08-24T08:22:31.943Z,1.10
2022-08-24T08:25:01.445Z,0.38
2022-08-24T08:27:29.432Z,0.63
2022-08-24T08:29:57.321Z,0.50
2022-08-24T08:32:25.469Z,0.28
2022-08-24T08:34:53.551Z,0.30
2022-08-24T08:37:21.633Z,0.40
2022-08-24T08:39:54.940Z,0.30
2022-08-24T08:42:40.530Z,0.60
2022-08-24T08:45:18.910Z,0.98
2022-08-24T08:48:21.676Z,0.50
2022-08-24T08:51:12.245Z,0.77
2022-08-24T08:54:15.833Z,0.77
2022-08-24T08:56:56.078Z,0.47
2022-08-24T08:59:46.209Z,0.40
2022-08-24T09:02:29.213Z,0.40
2022-08-24T09:05:47.376Z,0.40
2022-08-24T09:08:26.934Z,0.43
2022-08-24T09:11:01.441Z,0.52
2022-08-24T09:13:45.904Z,0.52
2022-08-24T09:16:43.093Z,0.50
2022-08-24T09:19:34.068Z,0.60
2022-08-24T09:22:12.096Z,0.40
2022-08-24T09:25:26.938Z,0.57
2022-08-24T09:28:14.679Z,0.60
2022-08-24T09:31:04.946Z,0.80
2022-08-24T09:33:43.961Z,0.77
2022-08-24T09:36:21.137Z,0.50
2022-08-24T09:39:00.794Z,0.32
2022-08-24T09:42:01.098Z,0.50
2022-08-24T09:45:02.211Z,0.45
2022-08-24T09:48:01.769Z,0.30
2022-08-24T09:50:59.349Z,1.33
2022-08-24T09:54:00.473Z,0.70
2022-08-24T09:56:45.775Z,0.55
2022-08-24T09:59:31.768Z,0.70
2022-08-24T10:02:22.709Z,0.55
2022-08-24T10:05:00.604Z,0.55
2022-08-24T10:07:38.066Z,1.05
2022-08-24T10:10:26.451Z,1.08
2022-08-24T10:13:04.447Z,1.30
2022-08-24T10:15:39.694Z,1.30
2022-08-24T10:18:22.757Z,1.55
2022-08-24T10:21:06.625Z,0.73
2022-08-24T10:23:51.732Z,1.05
2022-08-24T10:26:30.189Z,1.33
2022-08-24T10:29:31.997Z,0.50
2022-08-24T10:32:15.739Z,0.55
2022-08-24T10:35:03.268Z,0.50
2022-08-24T10:37:48.797Z,1.42
2022-08-24T10:40:31.892Z,0.50
2022-08-24T10:43:35.806Z,0.50
2022-08-24T10:46:38.366Z,0.88
2022-08-24T10:49:33.569Z,0.50
2022-08-24T10:52:32.628Z,0.95
2022-08-24T10:55:14.880Z,0.80
2022-08-24T10:57:56.433Z,0.40
2022-08-24T11:00:29.113Z,0.30
2022-08-24T11:03:10.946Z,0.40
2022-08-24T11:05:43.426Z,0.40
2022-08-24T11:08:19.487Z,0.40
2022-08-24T11:11:03.568Z,1.35
2022-08-24T11:13:31.992Z,0.73
2022-08-24T11:16:03.217Z,0.90
2022-08-24T11:18:49.593Z,0.50
2022-08-24T11:21:33.862Z,0.57
2022-08-24T11:24:04.593Z,0.52
2022-08-24T11:26:32.831Z,0.50
2022-08-24T11:29:02.284Z,0.50
2022-08-24T11:31:36.081Z,0.63
2022-08-24T11:34:08.119Z,0.75
2022-08-24T11:36:38.982Z,0.90
2022-08-24T11:39:20.396Z,0.80
2022-08-24T11:41:57.190Z,0.98
2022-08-24T11:44:39.158Z,0.70
2022-08-24T11:47:31.230Z,0.50
2022-08-24T11:50:06.464Z,0.55
2022-08-24T11:52:47.692Z,0.30
2022-08-24T11:55:24.291Z,0.80
2022-08-24T11:58:02.421Z,0.60
2022-08-24T12:00:44.229Z,1.35
2022-08-24T12:03:35.917Z,1.30
2022-08-24T12:06:11.317Z,0.70
2022-08-24T12:08:47.122Z,0.60
2022-08-24T12:11:23.709Z,0.88
2022-08-24T12:13:59.214Z,0.40
2022-08-24T12:16:35.502Z,0.52
2022-08-24T12:19:10.328Z,0.50
2022-08-24T12:21:40.933Z,0.60
2022-08-24T12:24:13.341Z,0.77
2022-08-24T12:26:45.216Z,0.95
2022-08-24T12:29:19.746Z,0.43
2022-08-24T12:31:51.608Z,0.50
2022-08-24T12:34:31.867Z,0.47
2022-08-24T12:37:05.026Z,0.40
2022-08-24T12:39:50.102Z,0.40
2022-08-24T12:42:23.502Z,0.90
2022-08-24T12:44:56.533Z,0.52
2022-08-24T12:47:30.144Z,0.40
2022-08-24T12:50:05.007Z,0.30
2022-08-24T12:53:13.353Z,0.52
2022-08-24T12:56:41.545Z,0.60
2022-08-24T12:59:18.802Z,0.50
2022-08-24T13:01:49.862Z,0.50
2022-08-24T13:04:34.374Z,0.50
2022-08-24T13:07:10.791Z,0.60
2022-08-24T13:09:41.036Z,0.80
2022-08-24T13:12:46.371Z,0.40
2022-08-24T13:15:43.824Z,0.45
2022-08-24T13:18:51.489Z,0.40
2022-08-24T13:21:54.479Z,0.70
2022-08-24T13:25:04.586Z,0.60
2022-08-24T13:28:11.028Z,0.50
2022-08-24T13:31:14.689Z,0.60
2022-08-24T13:33:47.801Z,0.60
2022-08-24T13:37:07.101Z,0.52
2022-08-24T13:39:59.784Z,0.30
2022-08-24T13:43:04.248Z,0.55
2022-08-24T13:45:37.548Z,0.50
2022-08-24T13:48:25.438Z,0.52
2022-08-24T13:51:26.654Z,0.30
2022-08-24T13:54:30.193Z,0.35
2022-08-24T13:57:16.950Z,0.50
2022-08-24T14:00:02.728Z,0.40
2022-08-24T14:02:43.535Z,0.40
2022-08-24T14:05:26.183Z,0.32
2022-08-24T14:08:08.179Z,0.55
2022-08-24T14:10:49.616Z,0.77
2022-08-24T14:13:36.325Z,0.32
2022-08-24T14:16:28.848Z,0.50
2022-08-24T14:19:08.925Z,0.30
2022-08-24T14:21:43.558Z,0.40
2022-08-24T14:24:26.902Z,0.40
2022-08-24T14:27:11.335Z,0.73
2022-08-24T14:29:46.709Z,0.40
2022-08-24T14:32:45.328Z,0.30
2022-08-24T14:35:37.100Z,0.40
2022-08-24T14:38:28.123Z,0.47
2022-08-24T14:41:10.372Z,0.60
2022-08-24T14:43:58.802Z,0.40
2022-08-24T14:46:36.038Z,0.63
2022-08-24T14:49:16.350Z,0.60
2022-08-24T14:51:57.968Z,0.52
2022-08-24T14:54:37.885Z,0.80
2022-08-24T14:57:23.779Z,0.60
2022-08-24T15:00:05.618Z,0.73
2022-08-24T15:03:11.673Z,0.80
2022-08-24T15:06:03.844Z,0.95
2022-08-24T15:08:43.059Z,0.80
2022-08-24T15:11:13.628Z,1.00
2022-08-24T15:13:48.919Z,0.90
2022-08-24T15:16:22.386Z,0.65
2022-08-24T15:19:00.310Z,1.10
2022-08-24T15:21:39.719Z,0.60
2022-08-24T15:24:16.773Z,1.15
2022-08-24T15:26:56.527Z,0.45
2022-08-24T15:29:30.452Z,0.70
2022-08-24T15:32:04.072Z,0.50
2022-08-24T15:34:45.669Z,0.55
2022-08-24T15:37:16.036Z,0.50
2022-08-24T15:39:44.295Z,0.75
2022-08-24T15:42:15.209Z,0.75
2022-08-24T15:44:47.158Z,0.80
2022-08-24T15:47:27.808Z,0.70
2022-08-24T15:49:59.412Z,0.60
2022-08-24T15:52:42.297Z,0.63
2022-08-24T15:55:27.896Z,1.10
2022-08-24T15:57:56.570Z,0.60
2022-08-24T16:00:54.967Z,0.93
2022-08-24T16:03:25.245Z,0.60
2022-08-24T16:05:56.051Z,0.55
2022-08-24T16:08:24.882Z,0.70
2022-08-24T16:10:56.557Z,0.60
2022-08-24T16:13:29.405Z,0.70
2022-08-24T16:16:03.294Z,0.60
2022-08-24T16:18:46.984Z,0.47
2022-08-24T16:21:17.418Z,0.50
2022-08-24T16:23:56.881Z,0.52
2022-08-24T16:26:27.838Z,0.60
2022-08-24T16:28:56.997Z,0.60
2022-08-24T16:31:52.072Z,0.80
2022-08-24T16:34:29.507Z,0.60
2022-08-24T16:36:58.571Z,0.60
2022-08-24T16:39:27.175Z,0.98
2022-08-24T16:41:58.785Z,1.35
2022-08-24T16:44:31.078Z,1.30
2022-08-24T16:47:00.388Z,1.23
2022-08-24T16:49:28.397Z,0.70
2022-08-24T16:51:56.537Z,0.40
2022-08-24T16:54:26.436Z,0.40
2022-08-24T16:56:54.758Z,0.63
2022-08-24T16:59:28.556Z,0.40
2022-08-24T17:01:56.533Z,0.50
2022-08-24T17:04:26.216Z,0.70
2022-08-24T17:06:56.834Z,1.02
2022-08-24T17:09:24.948Z,1.40
2022-08-24T17:11:52.802Z,1.60
2022-08-24T17:14:20.953Z,1.08
2022-08-24T17:16:49.321Z,0.45
2022-08-24T17:19:20.692Z,0.40
2022-08-24T17:21:50.355Z,0.50
2022-08-24T17:24:22.006Z,0.50
2022-08-24T17:26:52.325Z,0.50
2022-08-24T17:29:21.107Z,0.60
2022-08-24T17:31:51.100Z,0.50
2022-08-24T17:34:21.062Z,0.80
2022-08-24T17:36:52.626Z,0.65
2022-08-24T17:39:24.044Z,0.50
2022-08-24T17:41:52.123Z,0.55
2022-08-24T17:44:25.010Z,0.43
2022-08-24T17:46:55.223Z,0.55
2022-08-24T17:49:23.497Z,0.55
2022-08-24T17:51:53.260Z,0.40
2022-08-24T17:54:21.938Z,0.52
2022-08-24T17:56:51.084Z,0.52
2022-08-24T17:59:24.786Z,0.60
2022-08-24T18:01:55.120Z,0.57
2022-08-24T18:04:27.860Z,0.50
2022-08-24T18:06:59.137Z,0.60
2022-08-24T18:09:30.889Z,0.60
2022-08-24T18:12:04.358Z,0.85
2022-08-24T18:14:34.679Z,0.90
2022-08-24T18:17:05.368Z,0.68
2022-08-24T18:19:34.511Z,0.82
2022-08-24T18:22:04.635Z,0.73
2022-08-24T18:24:33.520Z,0.90
2022-08-24T18:27:02.873Z,1.20
2022-08-24T18:29:40.442Z,1.33
2022-08-24T18:32:11.689Z,0.70
2022-08-24T18:34:40.132Z,0.90
2022-08-24T18:37:09.629Z,0.85
2022-08-24T18:39:38.026Z,1.00
2022-08-24T18:42:12.768Z,0.73
2022-08-24T18:44:41.038Z,0.80
2022-08-24T18:47:09.587Z,0.80
2022-08-24T18:49:37.752Z,0.70
2022-08-24T18:52:10.479Z,0.80
2022-08-24T18:54:42.133Z,0.70
2022-08-24T18:57:10.169Z,0.70
2022-08-24T18:59:40.894Z,0.80
2022-08-24T19:02:30.327Z,0.80
2022-08-24T19:04:59.778Z,0.85
2022-08-24T19:07:31.741Z,0.60
2022-08-24T19:10:00.068Z,0.60
2022-08-24T19:12:31.550Z,0.90
2022-08-24T19:15:01.707Z,0.73
2022-08-24T19:17:29.709Z,0.60
2022-08-24T19:19:58.098Z,0.70
2022-08-24T19:22:27.189Z,0.70
2022-08-24T19:24:56.903Z,0.60
2022-08-24T19:27:25.501Z,0.57
2022-08-24T19:29:56.130Z,0.68
2022-08-24T19:32:27.217Z,0.50
2022-08-24T19:34:55.821Z,0.40
2022-08-24T19:37:24.378Z,0.68
2022-08-24T19:39:53.334Z,0.77
2022-08-24T19:42:23.086Z,0.57
2022-08-24T19:45:11.733Z,0.60
2022-08-24T19:47:43.254Z,0.55
2022-08-24T19:50:12.270Z,0.50
2022-08-24T19:52:40.737Z,0.50
2022-08-24T19:55:10.325Z,0.50
2022-08-24T19:57:44.263Z,0.50
2022-08-24T20:00:25.750Z,0.50
2022-08-24T20:02:55.731Z,0.52
2022-08-24T20:05:25.544Z,0.52
2022-08-24T20:07:53.513Z,0.52
2022-08-24T20:10:24.224Z,0.55
2022-08-24T20:12:54.002Z,0.52
2022-08-24T20:15:23.440Z,0.50
2022-08-24T20:17:52.289Z,0.73
2022-08-24T20:20:22.200Z,0.90
2022-08-24T20:22:50.948Z,0.90
2022-08-24T20:25:19.185Z,0.82
2022-08-24T20:27:48.242Z,0.77
2022-08-24T20:30:18.518Z,0.90
2022-08-24T20:32:47.995Z,0.60
2022-08-24T20:35:15.920Z,0.50
2022-08-24T20:37:43.980Z,0.60
2022-08-24T20:40:15.737Z,0.60
2022-08-24T20:42:43.880Z,0.73
2022-08-24T20:45:14.121Z,0.65
2022-08-24T20:47:48.893Z,0.77
2022-08-24T20:50:18.579Z,0.80
2022-08-24T20:52:46.518Z,0.70
2022-08-24T20:55:15.115Z,0.65
2022-08-24T20:57:48.277Z,0.73
2022-08-24T21:00:18.056Z,1.08
2022-08-24T21:02:47.946Z,0.70
2022-08-24T21:05:16.012Z,0.60
2022-08-24T21:07:49.597Z,0.85
2022-08-24T21:10:18.866Z,0.50
2022-08-24T21:12:46.748Z,0.63
2022-08-24T21:15:14.768Z,0.63
2022-08-24T21:17:44.052Z,0.90
2022-08-24T21:20:15.088Z,0.60
2022-08-24T21:22:45.284Z,0.63
2022-08-24T21:25:15.615Z,0.68
2022-08-24T21:27:46.345Z,0.55
2022-08-24T21:30:17.093Z,0.70
2022-08-24T21:33:02.937Z,0.80
2022-08-24T21:35:32.544Z,0.73
2022-08-24T21:38:01.174Z,0.95
2022-08-24T21:40:29.730Z,1.00
2022-08-24T21:42:58.339Z,0.80
2022-08-24T21:45:26.565Z,1.10
2022-08-24T21:47:55.322Z,1.08
2022-08-24T21:50:25.827Z,1.02
2022-08-24T21:52:55.193Z,0.88
2022-08-24T21:55:23.293Z,0.70
2022-08-24T21:57:51.491Z,1.02
2022-08-24T22:00:21.227Z,1.45
2022-08-24T22:02:49.966Z,1.20
2022-08-24T22:05:18.927Z,1.13
2022-08-24T22:07:47.609Z,1.20
2022-08-24T22:10:19.406Z,1.20
2022-08-24T22:12:47.561Z,1.10
2022-08-24T22:15:16.942Z,1.23
2022-08-24T22:17:52.925Z,1.33
2022-08-24T22:20:23.157Z,1.40
2022-08-24T22:22:51.897Z,1.27
2022-08-24T22:25:21.768Z,1.30
2022-08-24T22:27:49.825Z,1.10
2022-08-24T22:30:19.862Z,1.17
2022-08-24T22:32:47.985Z,1.55
2022-08-24T22:35:16.110Z,0.90
2022-08-24T22:37:44.061Z,1.40
2022-08-24T22:40:13.552Z,1.10
2022-08-24T22:42:43.437Z,1.02
2022-08-24T22:45:12.106Z,1.00
2022-08-24T22:47:40.153Z,1.40
2022-08-24T22:50:09.297Z,2.03
2022-08-24T22:52:37.233Z,1.40
2022-08-24T22:55:05.871Z,1.25
2022-08-24T22:57:34.579Z,1.50
2022-08-24T23:00:08.563Z,1.30
2022-08-24T23:02:37.514Z,1.10
2022-08-24T23:05:06.395Z,1.20
2022-08-24T23:07:35.469Z,1.15
2022-08-24T23:10:03.693Z,1.00
2022-08-24T23:12:33.128Z,1.38
2022-08-24T23:15:01.497Z,1.20
2022-08-24T23:17:30.836Z,1.40
2022-08-24T23:20:02.048Z,1.38
2022-08-24T23:22:32.598Z,1.20
2022-08-24T23:25:01.425Z,1.70
2022-08-24T23:27:37.774Z,1.27
2022-08-24T23:30:09.616Z,1.60
2022-08-24T23:32:39.241Z,1.60
2022-08-24T23:35:08.007Z,1.80
2022-08-24T23:37:35.933Z,1.77
2022-08-24T23:40:05.875Z,1.98
2022-08-24T23:42:33.952Z,2.00
2022-08-24T23:45:02.347Z,1.90
2022-08-24T23:47:30.254Z,1.70
2022-08-24T23:50:06.744Z,1.90
2022-08-24T23:52:40.311Z,2.25
2022-08-24T23:55:20.558Z,1.48
2022-08-24T23:57:50.026Z,1.30
